sensor_id;sensor_type;location;lat;lon;timestamp;P1;durP1;ratioP1;P2;durP2;ratioP2
86335;SDS011;76990;0.000;0.000;2024-03-02T00:01:14;14.60;;;9.50;;
86335;SDS011;76990;0.000;0.000;2024-03-02T00:03:39;15.00;;;9.50;;
86335;SDS011;76990;0.000;0.000;2024-03-02T00:06:07;16.20;;;10.00;;
86335;SDS011;76990;0.000;0.000;2024-03-02T00:08:35;16.50;;;9.50;;
86335;SDS011;76990;0.000;0.000;2024-03-02T00:11:01;18.40;;;9.60;;
86335;SDS011;76990;0.000;0.000;2024-03-02T00:13:29;15.70;;;9.50;;
86335;SDS011;76990;0.000;0.000;2024-03-02T00:15:57;19.50;;;10.10;;
86335;SDS011;76990;0.000;0.000;2024-03-02T00:20:55;17.90;;;9.30;;
86335;SDS011;76990;0.000;0.000;2024-03-02T00:23:26;15.00;;;9.40;;
86335;SDS011;76990;0.000;0.000;2024-03-02T00:25:54;17.80;;;10.20;;
86335;SDS011;76990;0.000;0.000;2024-03-02T00:28:24;20.20;;;10.60;;
86335;SDS011;76990;0.000;0.000;2024-03-02T00:33:43;17.60;;;9.70;;
86335;SDS011;76990;0.000;0.000;2024-03-02T00:36:13;16.70;;;10.60;;
86335;SDS011;76990;0.000;0.000;2024-03-02T00:38:46;19.20;;;9.90;;
86335;SDS011;76990;0.000;0.000;2024-03-02T00:41:19;14.60;;;9.70;;
86335;SDS011;76990;0.000;0.000;2024-03-02T00:49:04;14.70;;;9.40;;
86335;SDS011;76990;0.000;0.000;2024-03-02T00:51:31;17.10;;;9.30;;
86335;SDS011;76990;0.000;0.000;2024-03-02T00:53:59;16.90;;;9.70;;
86335;SDS011;76990;0.000;0.000;2024-03-02T00:56:28;15.80;;;9.70;;
86335;SDS011;76990;0.000;0.000;2024-03-02T00:58:58;15.80;;;10.10;;
86335;SDS011;76990;0.000;0.000;2024-03-02T01:01:28;14.70;;;9.20;;
86335;SDS011;76990;0.000;0.000;2024-03-02T01:03:53;14.70;;;9.20;;
86335;SDS011;76990;0.000;0.000;2024-03-02T01:06:19;13.80;;;8.50;;
86335;SDS011;76990;0.000;0.000;2024-03-02T01:08:47;16.40;;;9.60;;
86335;SDS011;76990;0.000;0.000;2024-03-02T01:11:16;13.40;;;9.00;;
86335;SDS011;76990;0.000;0.000;2024-03-02T01:13:41;16.70;;;9.60;;
86335;SDS011;76990;0.000;0.000;2024-03-02T01:16:07;16.90;;;8.80;;
86335;SDS011;76990;0.000;0.000;2024-03-02T01:18:32;16.70;;;9.40;;
86335;SDS011;76990;0.000;0.000;2024-03-02T01:20:58;16.10;;;9.20;;
86335;SDS011;76990;0.000;0.000;2024-03-02T01:23:24;17.20;;;9.70;;
86335;SDS011;76990;0.000;0.000;2024-03-02T01:25:50;16.40;;;9.60;;
86335;SDS011;76990;0.000;0.000;2024-03-02T01:28:17;15.10;;;8.50;;
86335;SDS011;76990;0.000;0.000;2024-03-02T01:30:43;16.20;;;8.90;;
86335;SDS011;76990;0.000;0.000;2024-03-02T01:33:09;16.80;;;9.10;;
86335;SDS011;76990;0.000;0.000;2024-03-02T01:35:34;13.00;;;8.80;;
86335;SDS011;76990;0.000;0.000;2024-03-02T01:38:00;15.90;;;9.20;;
86335;SDS011;76990;0.000;0.000;2024-03-02T01:40:26;15.10;;;8.30;;
86335;SDS011;76990;0.000;0.000;2024-03-02T01:42:54;13.10;;;8.50;;
86335;SDS011;76990;0.000;0.000;2024-03-02T01:45:33;17.20;;;8.40;;
86335;SDS011;76990;0.000;0.000;2024-03-02T01:48:04;16.60;;;8.60;;
86335;SDS011;76990;0.000;0.000;2024-03-02T01:50:34;12.60;;;8.50;;
86335;SDS011;76990;0.000;0.000;2024-03-02T01:53:04;15.20;;;8.90;;
86335;SDS011;76990;0.000;0.000;2024-03-02T01:55:30;15.50;;;8.60;;
86335;SDS011;76990;0.000;0.000;2024-03-02T01:57:56;15.50;;;9.20;;
86335;SDS011;76990;0.000;0.000;2024-03-02T02:00:22;14.10;;;8.80;;
86335;SDS011;76990;0.000;0.000;2024-03-02T02:02:51;15.90;;;9.10;;
86335;SDS011;76990;0.000;0.000;2024-03-02T02:05:17;18.20;;;8.80;;
86335;SDS011;76990;0.000;0.000;2024-03-02T02:07:43;18.50;;;9.40;;
86335;SDS011;76990;0.000;0.000;2024-03-02T02:10:12;16.40;;;9.00;;
86335;SDS011;76990;0.000;0.000;2024-03-02T02:12:37;14.30;;;8.60;;
86335;SDS011;76990;0.000;0.000;2024-03-02T02:15:04;17.90;;;9.60;;
86335;SDS011;76990;0.000;0.000;2024-03-02T02:17:46;16.40;;;9.20;;
86335;SDS011;76990;0.000;0.000;2024-03-02T02:20:14;17.30;;;9.10;;
86335;SDS011;76990;0.000;0.000;2024-03-02T02:23:03;17.40;;;9.30;;
86335;SDS011;76990;0.000;0.000;2024-03-02T02:25:31;15.00;;;8.90;;
86335;SDS011;76990;0.000;0.000;2024-03-02T02:27:56;16.60;;;9.00;;
86335;SDS011;76990;0.000;0.000;2024-03-02T02:30:26;13.50;;;8.80;;
86335;SDS011;76990;0.000;0.000;2024-03-02T02:32:55;16.30;;;9.40;;
86335;SDS011;76990;0.000;0.000;2024-03-02T02:35:21;15.30;;;9.20;;
86335;SDS011;76990;0.000;0.000;2024-03-02T02:37:47;17.10;;;9.20;;
86335;SDS011;76990;0.000;0.000;2024-03-02T02:40:12;19.80;;;8.80;;
86335;SDS011;76990;0.000;0.000;2024-03-02T02:42:38;15.80;;;9.00;;
86335;SDS011;76990;0.000;0.000;2024-03-02T02:45:07;18.50;;;9.70;;
86335;SDS011;76990;0.000;0.000;2024-03-02T02:47:32;16.70;;;9.30;;
86335;SDS011;76990;0.000;0.000;2024-03-02T02:50:01;18.10;;;9.00;;
86335;SDS011;76990;0.000;0.000;2024-03-02T02:52:33;18.30;;;9.70;;
86335;SDS011;76990;0.000;0.000;2024-03-02T02:55:02;14.20;;;8.90;;
86335;SDS011;76990;0.000;0.000;2024-03-02T02:57:28;14.80;;;8.70;;
86335;SDS011;76990;0.000;0.000;2024-03-02T02:59:56;17.00;;;9.00;;
86335;SDS011;76990;0.000;0.000;2024-03-02T03:02:22;14.80;;;8.80;;
86335;SDS011;76990;0.000;0.000;2024-03-02T03:04:47;15.90;;;9.70;;
86335;SDS011;76990;0.000;0.000;2024-03-02T03:07:13;18.20;;;10.00;;
86335;SDS011;76990;0.000;0.000;2024-03-02T03:09:38;16.00;;;9.50;;
86335;SDS011;76990;0.000;0.000;2024-03-02T03:12:04;16.50;;;9.70;;
86335;SDS011;76990;0.000;0.000;2024-03-02T03:14:32;16.60;;;9.20;;
86335;SDS011;76990;0.000;0.000;2024-03-02T03:16:58;15.90;;;9.30;;
86335;SDS011;76990;0.000;0.000;2024-03-02T03:19:25;17.10;;;9.20;;
86335;SDS011;76990;0.000;0.000;2024-03-02T03:21:51;18.60;;;9.10;;
86335;SDS011;76990;0.000;0.000;2024-03-02T03:24:16;18.20;;;9.90;;
86335;SDS011;76990;0.000;0.000;2024-03-02T03:26:42;18.00;;;9.50;;
86335;SDS011;76990;0.000;0.000;2024-03-02T03:29:09;17.10;;;9.00;;
86335;SDS011;76990;0.000;0.000;2024-03-02T03:31:42;17.80;;;9.20;;
86335;SDS011;76990;0.000;0.000;2024-03-02T03:34:08;17.70;;;9.10;;
86335;SDS011;76990;0.000;0.000;2024-03-02T03:36:33;18.30;;;9.70;;
86335;SDS011;76990;0.000;0.000;2024-03-02T03:38:59;15.10;;;9.60;;
86335;SDS011;76990;0.000;0.000;2024-03-02T03:41:27;17.10;;;9.60;;
86335;SDS011;76990;0.000;0.000;2024-03-02T03:43:54;18.50;;;9.40;;
86335;SDS011;76990;0.000;0.000;2024-03-02T03:46:22;17.70;;;9.80;;
86335;SDS011;76990;0.000;0.000;2024-03-02T03:48:50;15.70;;;9.40;;
86335;SDS011;76990;0.000;0.000;2024-03-02T03:51:23;17.90;;;10.30;;
86335;SDS011;76990;0.000;0.000;2024-03-02T03:53:48;16.10;;;9.80;;
86335;SDS011;76990;0.000;0.000;2024-03-02T03:56:14;16.20;;;9.80;;
86335;SDS011;76990;0.000;0.000;2024-03-02T03:58:48;19.20;;;9.90;;
86335;SDS011;76990;0.000;0.000;2024-03-02T04:01:19;14.40;;;9.40;;
86335;SDS011;76990;0.000;0.000;2024-03-02T04:03:47;15.20;;;9.60;;
86335;SDS011;76990;0.000;0.000;2024-03-02T04:06:15;19.00;;;10.40;;
86335;SDS011;76990;0.000;0.000;2024-03-02T04:08:42;20.10;;;11.00;;
86335;SDS011;76990;0.000;0.000;2024-03-02T04:11:08;18.30;;;10.50;;
86335;SDS011;76990;0.000;0.000;2024-03-02T04:13:33;18.50;;;9.90;;
86335;SDS011;76990;0.000;0.000;2024-03-02T04:15:59;16.90;;;10.40;;
86335;SDS011;76990;0.000;0.000;2024-03-02T04:18:24;17.60;;;10.50;;
86335;SDS011;76990;0.000;0.000;2024-03-02T04:20:50;17.70;;;10.20;;
86335;SDS011;76990;0.000;0.000;2024-03-02T04:23:15;19.20;;;10.20;;
86335;SDS011;76990;0.000;0.000;2024-03-02T04:25:41;19.40;;;10.40;;
86335;SDS011;76990;0.000;0.000;2024-03-02T04:28:06;19.30;;;11.50;;
86335;SDS011;76990;0.000;0.000;2024-03-02T04:30:32;18.50;;;10.10;;
86335;SDS011;76990;0.000;0.000;2024-03-02T04:32:57;17.70;;;10.50;;
86335;SDS011;76990;0.000;0.000;2024-03-02T04:35:23;17.00;;;10.30;;
86335;SDS011;76990;0.000;0.000;2024-03-02T04:37:48;17.60;;;9.80;;
86335;SDS011;76990;0.000;0.000;2024-03-02T04:40:14;17.50;;;10.20;;
86335;SDS011;76990;0.000;0.000;2024-03-02T04:42:39;20.50;;;10.10;;
86335;SDS011;76990;0.000;0.000;2024-03-02T04:45:05;17.60;;;10.60;;
86335;SDS011;76990;0.000;0.000;2024-03-02T04:47:31;16.60;;;10.40;;
86335;SDS011;76990;0.000;0.000;2024-03-02T04:49:57;17.60;;;10.40;;
86335;SDS011;76990;0.000;0.000;2024-03-02T04:52:53;16.80;;;10.40;;
86335;SDS011;76990;0.000;0.000;2024-03-02T04:58:25;19.90;;;11.10;;
86335;SDS011;76990;0.000;0.000;2024-03-02T05:00:54;17.10;;;10.40;;
86335;SDS011;76990;0.000;0.000;2024-03-02T05:03:35;20.10;;;9.60;;
86335;SDS011;76990;0.000;0.000;2024-03-02T05:06:12;16.80;;;10.90;;
86335;SDS011;76990;0.000;0.000;2024-03-02T05:08:50;20.30;;;10.50;;
86335;SDS011;76990;0.000;0.000;2024-03-02T05:11:16;18.90;;;10.80;;
86335;SDS011;76990;0.000;0.000;2024-03-02T05:14:00;18.20;;;10.10;;
86335;SDS011;76990;0.000;0.000;2024-03-02T05:16:25;18.10;;;10.80;;
86335;SDS011;76990;0.000;0.000;2024-03-02T05:18:50;19.00;;;10.70;;
86335;SDS011;76990;0.000;0.000;2024-03-02T05:21:16;15.90;;;9.80;;
86335;SDS011;76990;0.000;0.000;2024-03-02T05:23:41;18.00;;;10.00;;
86335;SDS011;76990;0.000;0.000;2024-03-02T05:26:07;17.20;;;10.40;;
86335;SDS011;76990;0.000;0.000;2024-03-02T05:31:40;18.50;;;9.70;;
86335;SDS011;76990;0.000;0.000;2024-03-02T05:34:13;19.20;;;10.40;;
86335;SDS011;76990;0.000;0.000;2024-03-02T05:37:01;18.00;;;9.80;;
86335;SDS011;76990;0.000;0.000;2024-03-02T05:39:27;18.10;;;10.10;;
86335;SDS011;76990;0.000;0.000;2024-03-02T05:41:52;16.90;;;9.80;;
86335;SDS011;76990;0.000;0.000;2024-03-02T05:44:18;18.10;;;10.30;;
86335;SDS011;76990;0.000;0.000;2024-03-02T05:46:44;16.40;;;9.80;;
86335;SDS011;76990;0.000;0.000;2024-03-02T05:49:10;18.60;;;10.00;;
86335;SDS011;76990;0.000;0.000;2024-03-02T05:51:35;18.80;;;9.70;;
86335;SDS011;76990;0.000;0.000;2024-03-02T05:54:03;17.10;;;10.00;;
86335;SDS011;76990;0.000;0.000;2024-03-02T05:56:29;19.00;;;10.40;;
86335;SDS011;76990;0.000;0.000;2024-03-02T05:58:54;18.50;;;9.70;;
86335;SDS011;76990;0.000;0.000;2024-03-02T06:01:32;16.50;;;9.40;;
86335;SDS011;76990;0.000;0.000;2024-03-02T06:03:57;17.60;;;10.80;;
86335;SDS011;76990;0.000;0.000;2024-03-02T06:06:24;19.00;;;9.80;;
86335;SDS011;76990;0.000;0.000;2024-03-02T06:08:50;17.00;;;10.10;;
86335;SDS011;76990;0.000;0.000;2024-03-02T06:11:15;19.10;;;10.10;;
86335;SDS011;76990;0.000;0.000;2024-03-02T06:13:41;16.10;;;9.40;;
86335;SDS011;76990;0.000;0.000;2024-03-02T06:16:07;17.00;;;9.70;;
86335;SDS011;76990;0.000;0.000;2024-03-02T06:18:33;15.90;;;9.50;;
86335;SDS011;76990;0.000;0.000;2024-03-02T06:20:59;20.90;;;9.90;;
86335;SDS011;76990;0.000;0.000;2024-03-02T06:23:26;20.70;;;10.00;;
86335;SDS011;76990;0.000;0.000;2024-03-02T06:25:51;19.60;;;9.60;;
86335;SDS011;76990;0.000;0.000;2024-03-02T06:28:16;16.50;;;9.60;;
86335;SDS011;76990;0.000;0.000;2024-03-02T06:30:42;19.70;;;10.20;;
86335;SDS011;76990;0.000;0.000;2024-03-02T06:33:08;18.30;;;10.40;;
86335;SDS011;76990;0.000;0.000;2024-03-02T06:35:34;17.00;;;10.20;;
86335;SDS011;76990;0.000;0.000;2024-03-02T06:38:00;17.70;;;10.60;;
86335;SDS011;76990;0.000;0.000;2024-03-02T06:40:26;19.70;;;10.60;;
86335;SDS011;76990;0.000;0.000;2024-03-02T06:42:51;17.80;;;10.60;;
86335;SDS011;76990;0.000;0.000;2024-03-02T06:45:16;19.90;;;9.70;;
86335;SDS011;76990;0.000;0.000;2024-03-02T06:47:42;18.90;;;10.40;;
86335;SDS011;76990;0.000;0.000;2024-03-02T06:50:07;20.90;;;10.50;;
86335;SDS011;76990;0.000;0.000;2024-03-02T06:52:34;17.90;;;10.00;;
86335;SDS011;76990;0.000;0.000;2024-03-02T06:55:00;18.60;;;9.80;;
86335;SDS011;76990;0.000;0.000;2024-03-02T06:57:25;15.00;;;9.70;;
86335;SDS011;76990;0.000;0.000;2024-03-02T06:59:51;18.70;;;10.40;;
86335;SDS011;76990;0.000;0.000;2024-03-02T07:02:19;17.30;;;9.80;;
86335;SDS011;76990;0.000;0.000;2024-03-02T07:04:45;18.70;;;9.80;;
86335;SDS011;76990;0.000;0.000;2024-03-02T07:07:10;17.50;;;9.90;;
86335;SDS011;76990;0.000;0.000;2024-03-02T07:09:36;21.70;;;10.00;;
86335;SDS011;76990;0.000;0.000;2024-03-02T07:12:01;18.40;;;9.70;;
86335;SDS011;76990;0.000;0.000;2024-03-02T07:14:27;16.20;;;9.50;;
86335;SDS011;76990;0.000;0.000;2024-03-02T07:17:12;18.80;;;9.90;;
86335;SDS011;76990;0.000;0.000;2024-03-02T07:19:38;20.60;;;10.50;;
86335;SDS011;76990;0.000;0.000;2024-03-02T07:22:07;23.90;;;10.90;;
86335;SDS011;76990;0.000;0.000;2024-03-02T07:24:38;16.40;;;10.10;;
86335;SDS011;76990;0.000;0.000;2024-03-02T07:27:07;17.10;;;9.10;;
86335;SDS011;76990;0.000;0.000;2024-03-02T07:29:34;17.50;;;9.00;;
86335;SDS011;76990;0.000;0.000;2024-03-02T07:32:00;18.10;;;10.10;;
86335;SDS011;76990;0.000;0.000;2024-03-02T07:34:25;17.60;;;10.10;;
86335;SDS011;76990;0.000;0.000;2024-03-02T07:36:50;20.70;;;10.50;;
86335;SDS011;76990;0.000;0.000;2024-03-02T07:39:16;17.60;;;10.20;;
86335;SDS011;76990;0.000;0.000;2024-03-02T07:41:42;16.60;;;9.70;;
86335;SDS011;76990;0.000;0.000;2024-03-02T07:44:07;18.20;;;10.10;;
86335;SDS011;76990;0.000;0.000;2024-03-02T07:46:33;20.10;;;10.00;;
86335;SDS011;76990;0.000;0.000;2024-03-02T07:48:58;19.50;;;10.50;;
86335;SDS011;76990;0.000;0.000;2024-03-02T07:51:27;16.70;;;9.00;;
86335;SDS011;76990;0.000;0.000;2024-03-02T07:53:52;17.70;;;9.60;;
86335;SDS011;76990;0.000;0.000;2024-03-02T07:56:18;17.60;;;10.70;;
86335;SDS011;76990;0.000;0.000;2024-03-02T07:58:47;17.20;;;9.20;;
86335;SDS011;76990;0.000;0.000;2024-03-02T08:01:23;19.00;;;10.40;;
86335;SDS011;76990;0.000;0.000;2024-03-02T08:03:51;18.90;;;10.40;;
86335;SDS011;76990;0.000;0.000;2024-03-02T08:06:17;18.40;;;9.80;;
86335;SDS011;76990;0.000;0.000;2024-03-02T08:08:45;14.40;;;8.60;;
86335;SDS011;76990;0.000;0.000;2024-03-02T08:11:11;13.50;;;7.30;;
86335;SDS011;76990;0.000;0.000;2024-03-02T08:13:36;14.00;;;8.00;;
86335;SDS011;76990;0.000;0.000;2024-03-02T08:16:03;13.30;;;7.30;;
86335;SDS011;76990;0.000;0.000;2024-03-02T08:18:32;12.30;;;7.70;;
86335;SDS011;76990;0.000;0.000;2024-03-02T08:20:58;14.70;;;8.80;;
86335;SDS011;76990;0.000;0.000;2024-03-02T08:23:24;16.00;;;9.00;;
86335;SDS011;76990;0.000;0.000;2024-03-02T08:25:49;15.10;;;8.50;;
86335;SDS011;76990;0.000;0.000;2024-03-02T08:28:15;13.60;;;7.80;;
86335;SDS011;76990;0.000;0.000;2024-03-02T08:30:49;17.70;;;8.20;;
86335;SDS011;76990;0.000;0.000;2024-03-02T08:33:27;18.40;;;7.30;;
86335;SDS011;76990;0.000;0.000;2024-03-02T08:52:54;15.10;;;9.20;;
86335;SDS011;76990;0.000;0.000;2024-03-02T08:55:20;12.80;;;7.20;;
86335;SDS011;76990;0.000;0.000;2024-03-02T08:57:51;15.40;;;6.90;;
86335;SDS011;76990;0.000;0.000;2024-03-02T09:03:46;10.80;;;6.00;;
86335;SDS011;76990;0.000;0.000;2024-03-02T09:06:36;10.40;;;6.50;;
86335;SDS011;76990;0.000;0.000;2024-03-02T09:09:18;14.70;;;6.50;;
86335;SDS011;76990;0.000;0.000;2024-03-02T09:11:46;9.10;;;5.30;;
86335;SDS011;76990;0.000;0.000;2024-03-02T09:18:18;10.30;;;6.00;;
86335;SDS011;76990;0.000;0.000;2024-03-02T09:20:45;14.50;;;6.20;;
86335;SDS011;76990;0.000;0.000;2024-03-02T09:23:11;11.00;;;6.10;;
86335;SDS011;76990;0.000;0.000;2024-03-02T09:25:40;11.80;;;5.90;;
86335;SDS011;76990;0.000;0.000;2024-03-02T09:28:05;10.50;;;5.40;;
86335;SDS011;76990;0.000;0.000;2024-03-02T09:40:17;14.40;;;7.10;;
86335;SDS011;76990;0.000;0.000;2024-03-02T09:43:13;14.10;;;7.50;;
86335;SDS011;76990;0.000;0.000;2024-03-02T09:46:34;10.00;;;6.70;;
86335;SDS011;76990;0.000;0.000;2024-03-02T09:49:16;10.40;;;6.10;;
86335;SDS011;76990;0.000;0.000;2024-03-02T09:52:02;11.00;;;6.20;;
86335;SDS011;76990;0.000;0.000;2024-03-02T09:54:38;12.60;;;5.90;;
86335;SDS011;76990;0.000;0.000;2024-03-02T09:57:11;10.30;;;6.20;;
86335;SDS011;76990;0.000;0.000;2024-03-02T09:59:58;9.30;;;5.40;;
86335;SDS011;76990;0.000;0.000;2024-03-02T10:02:40;10.60;;;5.80;;
86335;SDS011;76990;0.000;0.000;2024-03-02T10:05:33;13.90;;;6.30;;
86335;SDS011;76990;0.000;0.000;2024-03-02T10:08:16;12.40;;;6.40;;
86335;SDS011;76990;0.000;0.000;2024-03-02T10:11:30;9.40;;;5.20;;
86335;SDS011;76990;0.000;0.000;2024-03-02T10:14:08;9.00;;;5.90;;
86335;SDS011;76990;0.000;0.000;2024-03-02T10:16:49;9.20;;;5.60;;
86335;SDS011;76990;0.000;0.000;2024-03-02T21:28:40;6.90;;;3.10;;
86335;SDS011;76990;0.000;0.000;2024-03-02T21:31:05;8.00;;;3.20;;
86335;SDS011;76990;0.000;0.000;2024-03-02T21:33:31;8.90;;;3.30;;
86335;SDS011;76990;0.000;0.000;2024-03-02T21:35:56;10.10;;;3.30;;
86335;SDS011;76990;0.000;0.000;2024-03-02T21:38:22;9.50;;;2.90;;
86335;SDS011;76990;0.000;0.000;2024-03-02T21:40:48;6.40;;;2.50;;
86335;SDS011;76990;0.000;0.000;2024-03-02T21:43:14;4.90;;;2.80;;
86335;SDS011;76990;0.000;0.000;2024-03-02T21:53:00;8.40;;;2.90;;
86335;SDS011;76990;0.000;0.000;2024-03-02T21:55:28;4.70;;;2.60;;
86335;SDS011;76990;0.000;0.000;2024-03-02T21:57:53;7.50;;;2.90;;
86335;SDS011;76990;0.000;0.000;2024-03-02T22:00:19;4.10;;;2.60;;
86335;SDS011;76990;0.000;0.000;2024-03-02T22:09:38;5.60;;;2.80;;
86335;SDS011;76990;0.000;0.000;2024-03-02T22:12:04;6.70;;;3.00;;
86335;SDS011;76990;0.000;0.000;2024-03-02T22:14:29;5.50;;;2.70;;
86335;SDS011;76990;0.000;0.000;2024-03-02T22:16:54;4.80;;;2.70;;
86335;SDS011;76990;0.000;0.000;2024-03-02T22:19:20;4.50;;;2.80;;
86335;SDS011;76990;0.000;0.000;2024-03-02T22:28:21;4.20;;;2.90;;
86335;SDS011;76990;0.000;0.000;2024-03-02T22:30:46;4.10;;;2.80;;
86335;SDS011;76990;0.000;0.000;2024-03-02T22:33:11;6.80;;;2.90;;
86335;SDS011;76990;0.000;0.000;2024-03-02T22:35:37;4.80;;;3.10;;
86335;SDS011;76990;0.000;0.000;2024-03-02T22:38:03;4.40;;;2.90;;
86335;SDS011;76990;0.000;0.000;2024-03-02T22:40:29;4.00;;;2.90;;
86335;SDS011;76990;0.000;0.000;2024-03-02T22:42:54;6.10;;;3.40;;
86335;SDS011;76990;0.000;0.000;2024-03-02T22:45:23;5.20;;;3.00;;
86335;SDS011;76990;0.000;0.000;2024-03-02T22:47:49;5.20;;;3.30;;
86335;SDS011;76990;0.000;0.000;2024-03-02T22:50:15;5.60;;;2.70;;
86335;SDS011;76990;0.000;0.000;2024-03-02T22:59:28;7.00;;;3.20;;
86335;SDS011;76990;0.000;0.000;2024-03-02T23:08:21;4.80;;;3.10;;
86335;SDS011;76990;0.000;0.000;2024-03-02T23:10:46;5.30;;;3.20;;
86335;SDS011;76990;0.000;0.000;2024-03-02T23:20:17;5.80;;;3.40;;
86335;SDS011;76990;0.000;0.000;2024-03-02T23:22:42;6.60;;;3.60;;
86335;SDS011;76990;0.000;0.000;2024-03-02T23:25:08;5.70;;;4.10;;
86335;SDS011;76990;0.000;0.000;2024-03-02T23:27:34;5.50;;;3.50;;
86335;SDS011;76990;0.000;0.000;2024-03-02T23:36:36;6.00;;;3.60;;
86335;SDS011;76990;0.000;0.000;2024-03-02T23:39:01;5.30;;;4.00;;
86335;SDS011;76990;0.000;0.000;2024-03-02T23:41:29;6.20;;;3.60;;
86335;SDS011;76990;0.000;0.000;2024-03-02T23:43:55;5.50;;;3.70;;
86335;SDS011;76990;0.000;0.000;2024-03-02T23:46:23;6.50;;;3.50;;
86335;SDS011;76990;0.000;0.000;2024-03-02T23:48:48;6.00;;;4.00;;
86335;SDS011;76990;0.000;0.000;2024-03-02T23:58:22;5.70;;;4.00;;
